Cypress River, Canada
Current Conditions -  °F | °C
As of 11:00 AM on Saturday 22 Nov 2014 (Local Time) from CYBR Reporting Station
Haze Haze  
Wind Chill: 11°   Ceiling: 400
Heat Index: 25°   Visibility: 4mi
Dew Point: 25°   Wind: 17mph
Humidity: 100%   Direction: 80°E
Pressure: 29.53"   Gusts: NA
Location:  49.55°N, 99.08°W
Report Text: CYBR 221700Z 08015KT 4SM BR OVC004 M04/M04 A2953 RMK ST8 SLP020
Loading
Personal Weather Stations






























Interactive Weather Map New forecast layout! Learn more

10-Day Weather Forecast

Advertisements
Track Severe Weather on mobile